Time;durP1;ratioP1;P1;durP2;ratioP2;P2;SDS_P1;SDS_P2;PMS_P1;PMS_P2;Temp;Humidity;BMP_temperature;BMP_pressure;BME280_temperature;BME280_humidity;BME280_pressure;Samples;Min_cycle;Max_cycle;Signal;HPM_P1;HPM_P2
2022/11/02 00:01:17;;;;;;;;;;;;;;;21.45;62.32;99860.16;7314862;19;131370;-30
2022/11/02 00:03:42;;;;;;;;;;;;;;;21.47;61.95;99863.47;7315508;19;129059;-34
2022/11/02 00:06:07;;;;;;;;;;;;;;;21.49;61.98;99863.31;7312463;19;129136;-30
2022/11/02 00:08:33;;;;;;;;;;;;;;;21.48;61.80;99859.06;7314106;19;129613;-35
2022/11/02 00:10:58;;;;;;;;;;;;;;;21.45;62.16;99854.09;7314423;19;129705;-39
2022/11/02 00:13:23;;;;;;;;;;;;;;;21.47;62.09;99862.66;7312942;19;131101;-31
2022/11/02 00:15:48;;;;;;;;;;;;;;;21.46;62.03;99863.59;7309653;19;130671;-37
2022/11/02 00:18:14;;;;;;;;;;;;;;;21.43;62.17;99864.72;7315551;19;129635;-29
2022/11/02 00:20:40;;;;;;;;;;;;;;;21.42;62.63;99868.25;7314781;19;130042;-31
2022/11/02 00:23:09;;;;;;;;;;;;;;;21.45;62.25;99873.22;7313859;19;130222;-33
2022/11/02 00:25:36;;;;;;;;;;;;;;;21.32;62.24;99858.75;7311008;19;129420;-29
2022/11/02 00:28:02;;;;;;;;;;;;;;;21.35;62.06;99861.94;7313589;19;128931;-31
2022/11/02 00:30:27;;;;;;;;;;;;;;;21.41;61.81;99882.31;7314407;19;129044;-36
2022/11/02 00:32:52;;;;;;;;;;;;;;;21.44;62.50;99879.44;7315207;19;129275;-31
2022/11/02 00:35:18;;;;;;;;;;;;;;;21.45;62.44;99881.06;7314749;19;129509;-34
2022/11/02 00:37:43;;;;;;;;;;;;;;;21.44;61.81;99884.66;7312294;19;130094;-37
2022/11/02 00:40:08;;;;;;;;;;;;;;;21.44;61.68;99884.66;7314397;19;129142;-29
2022/11/02 00:42:34;;;;;;;;;;;;;;;21.43;61.76;99877.78;7313990;19;129223;-31
2022/11/02 00:44:59;;;;;;;;;;;;;;;21.42;62.13;99886.56;7309568;19;129567;-33
2022/11/02 00:47:24;;;;;;;;;;;;;;;21.35;61.79;99872.38;7309587;19;129646;-36
2022/11/02 00:49:49;;;;;;;;;;;;;;;21.43;62.00;99883.00;7314027;19;128970;-35
2022/11/02 00:52:14;;;;;;;;;;;;;;;21.41;62.26;99884.09;7303877;19;130086;-32
2022/11/02 00:54:40;;;;;;;;;;;;;;;21.39;61.92;99881.59;7313405;19;129380;-32
2022/11/02 00:57:05;;;;;;;;;;;;;;;21.39;62.29;99886.84;7313112;19;128920;-32
2022/11/02 00:59:30;;;;;;;;;;;;;;;21.42;62.35;99891.81;7310977;19;129201;-33
2022/11/02 01:01:55;;;;;;;;;;;;;;;21.43;61.63;99883.00;7312421;19;129819;-33
2022/11/02 01:04:21;;;;;;;;;;;;;;;21.45;62.25;99885.50;7312394;19;129902;-34
2022/11/02 01:06:46;;;;;;;;;;;;;;;21.34;62.11;99857.63;7313490;19;129629;-30
2022/11/02 01:09:13;;;;;;;;;;;;;;;21.44;61.99;99879.44;7310504;19;129001;-40
2022/11/02 01:11:38;;;;;;;;;;;;;;;21.46;62.24;99882.75;7312459;19;129173;-28
2022/11/02 01:14:04;;;;;;;;;;;;;;;21.44;61.69;99883.81;7312467;19;129218;-28
2022/11/02 01:16:29;;;;;;;;;;;;;;;21.44;62.17;99883.81;7311649;19;129764;-30
2022/11/02 01:18:55;;;;;;;;;;;;;;;21.31;61.65;99857.91;7310697;19;129469;-31
2022/11/02 01:21:21;;;;;;;;;;;;;;;21.43;61.82;99880.41;7312301;19;129586;-29
2022/11/02 01:23:46;;;;;;;;;;;;;;;21.42;61.45;99881.34;7313764;19;129889;-31
2022/11/02 01:26:12;;;;;;;;;;;;;;;21.30;62.27;99861.50;7313415;19;129985;-40
2022/11/02 01:28:38;;;;;;;;;;;;;;;21.38;62.20;99879.13;7309314;19;130577;-34
2022/11/02 01:31:03;;;;;;;;;;;;;;;21.36;61.66;99870.56;7312266;19;130069;-34
2022/11/02 01:33:29;;;;;;;;;;;;;;;21.36;62.25;99879.25;7312263;19;129632;-33
2022/11/02 01:35:54;;;;;;;;;;;;;;;21.39;62.09;99876.38;7312707;19;129140;-31
2022/11/02 01:38:19;;;;;;;;;;;;;;;21.41;61.93;99869.22;7311291;19;129165;-34
2022/11/02 01:40:45;;;;;;;;;;;;;;;21.42;62.02;99868.25;7311816;19;129155;-32
2022/11/02 01:43:17;;;;;;;;;;;;;;;21.39;61.93;99863.31;7312296;19;129789;-33
2022/11/02 01:45:42;;;;;;;;;;;;;;;21.39;61.61;99863.31;7311807;19;129717;-35
2022/11/02 01:48:08;;;;;;;;;;;;;;;21.42;61.45;99859.59;7311941;19;129108;-40
2022/11/02 01:50:33;;;;;;;;;;;;;;;21.42;61.48;99857.00;7310154;19;129680;-31
2022/11/02 01:52:58;;;;;;;;;;;;;;;21.41;61.78;99858.78;7313287;19;130152;-36
2022/11/02 01:55:28;;;;;;;;;;;;;;;21.40;62.37;99861.53;7313185;19;128879;-39
2022/11/02 01:58:01;;;;;;;;;;;;;;;21.34;62.11;99854.19;7306736;19;129413;-31
2022/11/02 02:00:27;;;;;;;;;;;;;;;21.38;61.47;99869.50;7310244;19;129543;-30
2022/11/02 02:03:06;;;;;;;;;;;;;;;21.41;61.63;99868.41;7311911;19;129243;-32
2022/11/02 02:05:33;;;;;;;;;;;;;;;21.41;61.48;99871.84;7309700;19;129260;-38
2022/11/02 02:07:59;;;;;;;;;;;;;;;21.41;62.25;99869.22;7310143;19;129903;-33
2022/11/02 02:10:24;;;;;;;;;;;;;;;21.41;61.65;99871.00;7310416;19;132553;-34
2022/11/02 02:12:50;;;;;;;;;;;;;;;21.40;61.83;99866.75;7312698;19;129342;-31
2022/11/02 02:15:15;;;;;;;;;;;;;;;21.38;61.81;99866.88;7304575;19;130732;-31
2022/11/02 02:17:47;;;;;;;;;;;;;;;21.41;61.41;99869.22;7298420;19;130575;-36
2022/11/02 02:20:21;;;;;;;;;;;;;;;21.39;61.67;99859.84;7310793;19;129400;-40
2022/11/02 02:23:00;;;;;;;;;;;;;;;21.39;61.61;99855.44;7310236;19;130478;-37
2022/11/02 02:25:41;;;;;;;;;;;;;;;21.40;61.44;99862.31;7310108;19;129051;-31
2022/11/02 02:28:09;;;;;;;;;;;;;;;21.43;62.16;99867.31;7306058;19;129325;-29
2022/11/02 02:30:37;;;;;;;;;;;;;;;21.42;61.63;99867.47;7311000;19;129084;-32
2022/11/02 02:33:07;;;;;;;;;;;;;;;21.42;62.04;99865.66;7310668;19;130444;-29
2022/11/02 02:35:37;;;;;;;;;;;;;;;21.41;61.96;99861.38;7311340;19;129725;-32
2022/11/02 02:38:05;;;;;;;;;;;;;;;21.42;61.71;99865.66;7308583;19;130803;-31
2022/11/02 02:40:36;;;;;;;;;;;;;;;21.26;61.76;99849.63;7310108;19;129947;-33
2022/11/02 02:43:16;;;;;;;;;;;;;;;21.41;62.08;99858.78;7310194;19;129693;-33
2022/11/02 02:45:41;;;;;;;;;;;;;;;21.40;61.96;99858.91;7308692;19;129941;-39
2022/11/02 02:48:10;;;;;;;;;;;;;;;21.42;61.65;99863.03;7308194;19;132749;-31
2022/11/02 02:50:49;;;;;;;;;;;;;;;21.41;61.29;99858.78;7310090;19;130030;-34
2022/11/02 02:53:15;;;;;;;;;;;;;;;21.40;61.91;99864.13;7306571;19;130683;-31
2022/11/02 02:55:43;;;;;;;;;;;;;;;21.31;61.83;99846.59;7311222;19;129084;-30
2022/11/02 02:58:12;;;;;;;;;;;;;;;21.39;61.44;99863.31;7307481;19;131556;-33
2022/11/02 03:00:38;;;;;;;;;;;;;;;21.39;61.45;99870.31;7309251;19;129465;-28
2022/11/02 03:03:04;;;;;;;;;;;;;;;21.29;61.64;99848.53;7309030;19;130090;-27
2022/11/02 03:05:33;;;;;;;;;;;;;;;21.39;61.48;99871.16;7307128;19;129376;-26
2022/11/02 03:08:01;;;;;;;;;;;;;;;21.42;61.13;99873.50;7307079;19;129800;-27
2022/11/02 03:10:32;;;;;;;;;;;;;;;21.41;61.54;99882.31;7308900;19;129736;-33
2022/11/02 03:12:57;;;;;;;;;;;;;;;21.40;61.37;99878.03;7310546;19;129481;-34
2022/11/02 03:15:29;;;;;;;;;;;;;;;21.40;61.84;99878.03;7308264;19;129865;-35
2022/11/02 03:18:00;;;;;;;;;;;;;;;21.40;61.85;99871.97;7308752;19;129472;-34
2022/11/02 03:20:39;;;;;;;;;;;;;;;21.39;61.27;99863.31;7308546;19;129536;-31
2022/11/02 03:23:13;;;;;;;;;;;;;;;21.41;61.80;99865.78;7309759;19;129343;-37
2022/11/02 03:25:58;;;;;;;;;;;;;;;21.40;61.57;99862.31;7307599;19;129077;-29
2022/11/02 03:28:30;;;;;;;;;;;;;;;21.40;61.48;99864.94;7305979;19;129498;-31
2022/11/02 03:31:03;;;;;;;;;;;;;;;21.39;61.40;99865.91;7308017;19;132440;-33
2022/11/02 03:33:32;;;;;;;;;;;;;;;21.39;61.44;99876.38;7308214;19;130439;-31
2022/11/02 03:36:02;;;;;;;;;;;;;;;21.40;61.76;99871.97;7309824;19;128919;-34
2022/11/02 03:38:31;;;;;;;;;;;;;;;21.37;61.87;99862.59;7308363;19;130011;-33
2022/11/02 03:40:58;;;;;;;;;;;;;;;21.38;61.61;99866.88;7309569;19;129497;-32
2022/11/02 03:43:24;;;;;;;;;;;;;;;21.42;61.50;99870.88;7308083;19;129297;-38
2022/11/02 03:45:51;;;;;;;;;;;;;;;21.37;61.42;99874.88;7306134;19;129201;-34
2022/11/02 03:48:18;;;;;;;;;;;;;;;21.40;61.42;99883.25;7309757;19;129651;-33
2022/11/02 03:50:47;;;;;;;;;;;;;;;21.40;61.77;99883.25;7313196;19;130069;-30
2022/11/02 03:53:26;;;;;;;;;;;;;;;21.38;61.31;99887.81;7315760;19;129615;-32
2022/11/02 03:55:54;;;;;;;;;;;;;;;21.38;61.33;99885.19;7314892;19;128987;-36
2022/11/02 03:58:20;;;;;;;;;;;;;;;21.39;61.70;99881.59;7312593;19;129576;-32
2022/11/02 04:01:07;;;;;;;;;;;;;;;21.38;61.85;99885.19;7311815;19;130176;-28
2022/11/02 04:03:32;;;;;;;;;;;;;;;21.38;61.31;99887.81;7314370;19;130574;-35
2022/11/02 04:05:57;;;;;;;;;;;;;;;21.38;61.74;99893.03;7313468;19;129526;-32
2022/11/02 04:08:42;;;;;;;;;;;;;;;21.32;61.51;99872.63;7315440;19;131114;-33
2022/11/02 04:16:35;;;;;;;;;;;;;;;21.24;61.56;99863.78;7309860;19;129318;-39
2022/11/02 04:25:14;;;;;;;;;;;;;;;21.37;61.44;99874.88;7313285;19;129389;-37
2022/11/02 04:27:13;;;;;;;;;;;;;;;21.35;61.27;99880.22;7315890;19;129179;-36
2022/11/02 04:29:39;;;;;;;;;;;;;;;21.37;61.76;99878.28;7314039;19;129183;-40
2022/11/02 04:32:04;;;;;;;;;;;;;;;21.34;61.46;99875.94;7312756;19;129089;-35
2022/11/02 04:34:29;;;;;;;;;;;;;;;21.36;61.94;99887.09;7311121;19;130246;-32
2022/11/02 04:36:54;;;;;;;;;;;;;;;21.39;61.36;99879.00;7313741;19;129541;-33
2022/11/02 04:39:20;;;;;;;;;;;;;;;21.38;61.35;99879.97;7313224;19;129815;-33
2022/11/02 04:41:45;;;;;;;;;;;;;;;21.38;61.51;99885.19;7313433;19;129719;-31
2022/11/02 04:44:13;;;;;;;;;;;;;;;21.38;61.72;99874.72;7314179;19;129186;-35
2022/11/02 04:46:39;;;;;;;;;;;;;;;21.36;60.97;99865.34;7311775;19;129554;-33
2022/11/02 04:49:04;;;;;;;;;;;;;;;21.38;61.06;99864.28;7303137;19;130246;-41
2022/11/02 04:51:30;;;;;;;;;;;;;;;21.40;61.23;99864.94;7304159;19;129431;-43
2022/11/02 04:53:56;;;;;;;;;;;;;;;21.39;61.25;99865.06;7312184;19;129744;-32
2022/11/02 04:56:22;;;;;;;;;;;;;;;21.38;61.67;99869.50;7309894;19;131221;-34
2022/11/02 04:58:49;;;;;;;;;;;;;;;21.38;60.97;99869.50;7304048;19;129452;-43
2022/11/02 05:01:15;;;;;;;;;;;;;;;21.36;61.48;99871.41;7312230;19;129607;-31
2022/11/02 05:03:40;;;;;;;;;;;;;;;21.37;61.63;99862.59;7313277;19;129127;-32
2022/11/02 05:06:06;;;;;;;;;;;;;;;21.28;61.45;99852.94;7308486;19;129260;-37
2022/11/02 05:08:31;;;;;;;;;;;;;;;21.36;61.39;99866.19;7312135;19;130714;-28
2022/11/02 05:10:57;;;;;;;;;;;;;;;21.36;61.12;99863.56;7312771;19;129540;-31
2022/11/02 05:13:23;;;;;;;;;;;;;;;21.36;60.99;99860.97;7309886;19;131712;-33
2022/11/02 05:15:49;;;;;;;;;;;;;;;21.35;61.37;99861.94;7309712;19;130082;-32
2022/11/02 05:18:14;;;;;;;;;;;;;;;21.36;60.94;99866.19;7311313;19;129084;-45
2022/11/02 05:20:39;;;;;;;;;;;;;;;21.36;61.51;99868.81;7312171;19;129373;-36
2022/11/02 05:23:05;;;;;;;;;;;;;;;21.36;61.37;99868.81;7313409;19;129557;-33
2022/11/02 05:25:30;;;;;;;;;;;;;;;21.37;61.17;99873.06;7306499;19;131265;-41
2022/11/02 05:27:56;;;;;;;;;;;;;;;21.29;61.52;99856.38;7311026;19;129660;-35
2022/11/02 05:30:21;;;;;;;;;;;;;;;21.37;61.18;99873.06;7310509;19;130134;-36
2022/11/02 05:32:46;;;;;;;;;;;;;;;21.37;61.68;99874.88;7313232;19;129686;-36
2022/11/02 05:35:12;;;;;;;;;;;;;;;21.37;61.52;99878.28;7308666;19;130452;-39
2022/11/02 05:37:37;;;;;;;;;;;;;;;21.38;61.02;99879.13;7309863;19;128980;-35
2022/11/02 05:40:03;;;;;;;;;;;;;;;21.36;61.31;99881.88;7312947;19;129684;-30
2022/11/02 05:42:28;;;;;;;;;;;;;;;21.38;61.37;99879.97;7310910;19;129090;-29
2022/11/02 05:44:53;;;;;;;;;;;;;;;21.38;61.41;99882.59;7308813;19;129264;-35
2022/11/02 05:47:19;;;;;;;;;;;;;;;21.28;61.60;99863.41;7304735;19;129580;-32
2022/11/02 05:49:44;;;;;;;;;;;;;;;21.36;61.09;99879.25;7309744;19;130171;-33
2022/11/02 05:52:09;;;;;;;;;;;;;;;21.37;61.39;99883.53;7309635;19;129225;-32
2022/11/02 05:54:34;;;;;;;;;;;;;;;21.38;61.29;99885.19;7305683;19;129781;-35
2022/11/02 05:57:00;;;;;;;;;;;;;;;21.37;61.38;99878.28;7304146;19;130458;-37
2022/11/02 05:59:25;;;;;;;;;;;;;;;21.38;61.42;99873.91;7302552;19;131060;-30
2022/11/02 06:01:50;;;;;;;;;;;;;;;21.36;60.75;99873.19;7309707;19;129297;-36
2022/11/02 06:04:15;;;;;;;;;;;;;;;21.35;61.63;99875.00;7306759;19;130621;-31
2022/11/02 06:06:41;;;;;;;;;;;;;;;21.38;61.08;99873.91;7308094;19;129376;-31
2022/11/02 06:09:06;;;;;;;;;;;;;;;21.36;61.39;99879.25;7304534;19;129777;-39
2022/11/02 06:11:31;;;;;;;;;;;;;;;21.36;61.05;99881.88;7293781;19;129498;-34
2022/11/02 06:13:57;;;;;;;;;;;;;;;21.36;61.48;99874.03;7300667;19;130469;-33
2022/11/02 06:16:22;;;;;;;;;;;;;;;21.38;61.31;99884.34;7306708;19;129345;-32
2022/11/02 06:18:47;;;;;;;;;;;;;;;21.40;61.39;99893.72;7308210;19;129514;-33
2022/11/02 06:21:13;;;;;;;;;;;;;;;21.36;61.02;99891.50;7307409;19;130836;-37
2022/11/02 06:23:38;;;;;;;;;;;;;;;21.38;61.55;99897.44;7311824;19;129309;-37
2022/11/02 06:26:04;;;;;;;;;;;;;;;21.38;60.82;99895.66;7307013;19;129120;-33
2022/11/02 06:28:29;;;;;;;;;;;;;;;21.38;60.90;99894.81;7305335;19;128979;-37
2022/11/02 06:30:55;;;;;;;;;;;;;;;21.38;61.14;99890.44;7306488;19;129540;-36
2022/11/02 06:33:21;;;;;;;;;;;;;;;21.30;61.27;99886.81;7309128;19;129481;-36
2022/11/02 06:35:47;;;;;;;;;;;;;;;21.37;61.52;99901.81;7308183;19;129500;-35
2022/11/02 06:38:12;;;;;;;;;;;;;;;21.36;61.12;99900.19;7306579;19;129859;-35
2022/11/02 06:40:37;;;;;;;;;;;;;;;21.36;60.97;99899.34;7307664;19;129726;-34
2022/11/02 06:43:03;;;;;;;;;;;;;;;21.37;61.32;99895.78;7310684;19;128937;-28
2022/11/02 06:45:28;;;;;;;;;;;;;;;21.34;61.19;99904.72;7310124;19;132118;-28
2022/11/02 06:47:53;;;;;;;;;;;;;;;21.35;61.12;99901.16;7309419;19;129575;-34
2022/11/02 06:50:19;;;;;;;;;;;;;;;21.33;61.42;99902.22;7309861;19;129673;-32
2022/11/02 06:52:45;;;;;;;;;;;;;;;21.33;61.31;99905.69;7309514;19;130273;-35
2022/11/02 06:55:11;;;;;;;;;;;;;;;21.33;60.99;99904.84;7311116;19;130242;-33
2022/11/02 06:57:36;;;;;;;;;;;;;;;21.38;61.27;99906.13;7307803;19;130302;-33
2022/11/02 07:00:03;;;;;;;;;;;;;;;21.34;61.55;99904.72;7305263;19;130120;-39
2022/11/02 07:02:29;;;;;;;;;;;;;;;21.27;60.72;99898.34;7307120;19;129399;-34
2022/11/02 07:04:54;;;;;;;;;;;;;;;21.34;61.33;99903.88;7304150;19;129951;-33
2022/11/02 07:07:20;;;;;;;;;;;;;;;21.34;60.86;99909.94;7311648;19;129421;-36
2022/11/02 07:09:45;;;;;;;;;;;;;;;21.34;61.15;99903.88;7307365;19;129734;-32
2022/11/02 07:12:10;;;;;;;;;;;;;;;21.26;60.98;99912.38;7311740;19;129365;-33
2022/11/02 07:14:35;;;;;;;;;;;;;;;21.33;60.80;99929.22;7309832;19;129127;-30
2022/11/02 07:17:01;;;;;;;;;;;;;;;21.33;61.50;99921.38;7310904;19;130898;-32
2022/11/02 07:19:26;;;;;;;;;;;;;;;21.28;61.10;99914.88;7307208;19;129894;-34
2022/11/02 07:21:51;;;;;;;;;;;;;;;21.33;61.46;99918.75;7309842;19;129143;-33
2022/11/02 07:24:16;;;;;;;;;;;;;;;21.10;59.82;99906.78;7317438;19;129159;-38
2022/11/02 07:26:42;;;;;;;;;;;;;;;20.71;59.96;99923.13;7314220;19;130059;-38
2022/11/02 07:29:07;;;;;;;;;;;;;;;20.71;60.56;99930.97;7315100;19;129197;-34
2022/11/02 07:31:32;;;;;;;;;;;;;;;20.67;60.58;99922.56;7315890;19;129309;-31
2022/11/02 07:33:57;;;;;;;;;;;;;;;20.78;62.00;99919.06;7316380;19;129248;-31
2022/11/02 07:36:23;;;;;;;;;;;;;;;20.84;62.45;99915.13;7315938;19;129419;-37
2022/11/02 07:38:48;;;;;;;;;;;;;;;20.88;61.93;99912.13;7316435;19;129145;-33
2022/11/02 07:41:13;;;;;;;;;;;;;;;20.91;61.63;99917.09;7315658;19;132018;-30
2022/11/02 07:43:39;;;;;;;;;;;;;;;20.96;62.42;99914.91;7318090;19;129494;-30
2022/11/02 07:46:05;;;;;;;;;;;;;;;21.00;61.73;99916.38;7310396;19;130073;-35
2022/11/02 07:48:30;;;;;;;;;;;;;;;21.02;61.89;99908.38;7315402;19;129959;-37
2022/11/02 07:50:58;;;;;;;;;;;;;;;21.04;61.88;99906.47;7313600;19;129837;-36
2022/11/02 07:53:24;;;;;;;;;;;;;;;20.99;61.78;99909.47;7316412;19;128946;-34
2022/11/02 07:55:49;;;;;;;;;;;;;;;20.82;62.11;99894.34;7316846;19;129266;-30
2022/11/02 07:58:14;;;;;;;;;;;;;;;21.08;61.15;99913.94;7312328;19;130447;-32
2022/11/02 08:00:40;;;;;;;;;;;;;;;21.23;61.70;99907.41;7314540;19;130754;-30
2022/11/02 08:03:06;;;;;;;;;;;;;;;21.25;60.95;99896.81;7316119;19;129307;-36
2022/11/02 08:05:36;;;;;;;;;;;;;;;21.27;61.00;99898.34;7315166;19;129890;-33
2022/11/02 08:08:02;;;;;;;;;;;;;;;21.24;60.91;99905.59;7316181;19;129257;-34
2022/11/02 08:10:29;;;;;;;;;;;;;;;21.27;60.86;99906.19;7302718;19;130428;-41
2022/11/02 08:12:54;;;;;;;;;;;;;;;21.26;61.06;99916.78;7311971;19;129406;-29
2022/11/02 08:15:19;;;;;;;;;;;;;;;21.25;61.11;99917.75;7316498;19;128948;-31
2022/11/02 08:17:44;;;;;;;;;;;;;;;21.25;61.50;99923.81;7314257;19;129360;-35
2022/11/02 08:20:10;;;;;;;;;;;;;;;21.25;61.57;99928.22;7314722;19;130451;-32
2022/11/02 08:22:38;;;;;;;;;;;;;;;21.26;61.28;99922.84;7313021;19;130052;-30
2022/11/02 08:25:04;;;;;;;;;;;;;;;21.27;61.20;99929.72;7312155;19;129767;-32
2022/11/02 08:27:30;;;;;;;;;;;;;;;21.25;61.67;99926.44;7315714;19;131148;-33
2022/11/02 08:29:55;;;;;;;;;;;;;;;21.27;61.35;99931.53;7311624;19;128965;-36
2022/11/02 08:32:20;;;;;;;;;;;;;;;21.22;61.93;99921.44;7314338;19;129775;-33
2022/11/02 08:34:45;;;;;;;;;;;;;;;21.22;61.65;99913.59;7313364;19;129695;-30
2022/11/02 08:37:10;;;;;;;;;;;;;;;21.24;61.85;99921.28;7314890;19;130286;-32
2022/11/02 08:39:36;;;;;;;;;;;;;;;21.23;61.32;99917.88;7312293;19;129015;-34
2022/11/02 08:42:01;;;;;;;;;;;;;;;21.22;61.50;99921.44;7314951;19;129920;-37
2022/11/02 08:44:26;;;;;;;;;;;;;;;21.22;62.01;99923.25;7315810;19;129766;-29
2022/11/02 08:46:51;;;;;;;;;;;;;;;21.20;61.85;99920.75;7311708;19;129671;-33
2022/11/02 08:49:17;;;;;;;;;;;;;;;21.24;62.05;99923.91;7313126;19;129087;-31
2022/11/02 08:51:43;;;;;;;;;;;;;;;21.23;62.04;99912.66;7313008;19;128908;-31
2022/11/02 08:54:08;;;;;;;;;;;;;;;21.23;61.18;99925.72;7315647;19;129450;-33
2022/11/02 08:56:33;;;;;;;;;;;;;;;21.23;61.51;99922.25;7309226;19;130619;-40
2022/11/02 08:58:59;;;;;;;;;;;;;;;21.24;61.58;99922.13;7310868;19;129231;-33
2022/11/02 09:01:24;;;;;;;;;;;;;;;21.23;61.96;99927.50;7314421;19;128865;-32
2022/11/02 09:03:49;;;;;;;;;;;;;;;21.22;61.63;99926.66;7312755;19;129148;-33
2022/11/02 09:06:14;;;;;;;;;;;;;;;21.23;62.00;99928.34;7312503;19;129626;-32
2022/11/02 09:08:40;;;;;;;;;;;;;;;21.21;62.05;99913.72;7313610;19;130164;-32
2022/11/02 09:11:05;;;;;;;;;;;;;;;21.16;61.21;99921.97;7310331;19;129619;-34
2022/11/02 09:13:30;;;;;;;;;;;;;;;21.24;61.56;99914.28;7314436;19;129610;-30
2022/11/02 09:15:57;;;;;;;;;;;;;;;21.24;61.98;99924.75;7312757;19;129509;-35
